OPA Logo
 
ASOS:
At:2021.02.26 0135 UTC
Wind:330° @ 12-20 KT
Viz: 10 mile(s)
Sky: clear
Temp: 39 F (4 C)
DewP: 24 F (-4 C)
RH: 55%
Baro: 30.13 in.
ob: KBDN 260135Z AUTO 33012G20KT 10SM CLR 04/M04 A3013 RMK AO2

ASOS: KRDM
At:2021.02.26 0056 UTC
Wind:320° @ 15-22 KT
Viz: 10 mile(s)
Sky: mostly cloudy
Temp: 41.0 F (5.0 C)
DewP: 26.1 F (-3.3 C)
RH: 54%
Baro: 30.15 in.
ob: KRDM 260056Z 32015G22KT 10SM BKN032 BKN041 05/M03 A3015 RMK AO2 PK WND 27037/0006 SLP219 T00501033
Apache-SSL Logo

Valid HTML 4.01!

Central Oregon OPA Chapter

XMAS Party December 2001

Click on Images to see image full size

Nancy
Nancy Lecklider and new friend
Ann, Virgina and Dale
Ann, Virginia and Dale
The Gang
The Gang

Photo Credits: Dean Cameron


Web page by: gem@rellim.com